Time;durP1;ratioP1;P1;durP2;ratioP2;P2;SDS_P1;SDS_P2;PMS_P1;PMS_P2;Temp;Humidity;BMP_temperature;BMP_pressure;BME280_temperature;BME280_humidity;BME280_pressure;Samples;Min_cycle;Max_cycle;Signal;HPM_P1;HPM_P2
2023/11/19 00:01:43;;;;;;;15.63;7.80;;;;;;;3.57;100.00;100980.09;7357373;19;20881;-50
2023/11/19 00:04:13;;;;;;;24.77;10.97;;;;;;;3.62;100.00;100982.97;7385887;19;20407;-49
2023/11/19 00:06:43;;;;;;;15.50;7.30;;;;;;;3.62;100.00;100973.69;7361800;19;20427;-49
2023/11/19 00:09:13;;;;;;;17.00;7.10;;;;;;;3.60;100.00;100980.31;7385569;19;20407;-51
2023/11/19 00:11:42;;;;;;;17.40;7.00;;;;;;;3.61;100.00;100971.91;7363621;19;20447;-50
2023/11/19 00:14:25;;;;;;;15.23;7.13;;;;;;;3.61;100.00;100961.69;7384675;19;20773;-51
2023/11/19 00:16:55;;;;;;;15.10;6.83;;;;;;;3.65;100.00;100953.47;7362880;19;20427;-54
2023/11/19 00:19:26;;;;;;;24.20;9.33;;;;;;;3.63;100.00;100938.81;7384824;19;20935;-49
2023/11/19 00:21:55;;;;;;;25.50;10.60;;;;;;;3.68;100.00;100922.19;7362777;19;20431;-51
2023/11/19 00:24:25;;;;;;;12.87;6.70;;;;;;;3.65;100.00;100933.06;7384881;19;20765;-51
2023/11/19 00:26:55;;;;;;;10.63;6.03;;;;;;;3.69;100.00;100917.97;7362576;19;20447;-55
2023/11/19 00:29:27;;;;;;;13.93;6.20;;;;;;;3.65;100.00;100901.56;7384685;19;20495;-49
2023/11/19 00:31:56;;;;;;;11.20;5.63;;;;;;;3.65;100.00;100907.53;7361780;19;20498;-52
2023/11/19 00:34:26;;;;;;;12.47;5.90;;;;;;;3.70;100.00;100894.22;7385339;19;20430;-54
2023/11/19 00:36:56;;;;;;;12.00;6.00;;;;;;;3.73;100.00;100894.44;7361620;19;21014;-51
2023/11/19 00:39:26;;;;;;;11.63;5.70;;;;;;;3.74;100.00;100888.56;7384328;19;20433;-54
2023/11/19 00:41:56;;;;;;;15.13;6.50;;;;;;;3.75;100.00;100887.78;7360339;19;20435;-54
2023/11/19 00:44:28;;;;;;;10.30;5.23;;;;;;;3.77;100.00;100888.78;7386137;19;20414;-51
2023/11/19 00:46:58;;;;;;;10.47;5.37;;;;;;;3.73;100.00;100882.56;7360635;19;20430;-54
2023/11/19 00:49:28;;;;;;;14.47;6.70;;;;;;;3.68;100.00;100880.47;7385820;19;20410;-52
2023/11/19 00:51:58;;;;;;;11.90;5.20;;;;;;;3.69;100.00;100878.00;7366068;19;20406;-50
2023/11/19 00:54:28;;;;;;;11.50;5.30;;;;;;;3.81;100.00;100883.13;7391315;19;20407;-51
2023/11/19 00:56:58;;;;;;;7.67;4.13;;;;;;;3.76;100.00;100884.47;7366584;19;20423;-50
2023/11/19 00:59:31;;;;;;;8.17;3.90;;;;;;;3.80;100.00;100866.03;7390038;19;20490;-52
2023/11/19 01:02:03;;;;;;;6.90;3.90;;;;;;;3.74;100.00;100863.91;7367890;19;20779;-51
2023/11/19 01:04:32;;;;;;;10.87;5.70;;;;;;;3.78;100.00;100854.81;7391619;19;20479;-51
2023/11/19 01:07:03;;;;;;;7.40;3.83;;;;;;;3.81;100.00;100847.38;7365065;19;20423;-53
2023/11/19 01:09:35;;;;;;;8.57;4.50;;;;;;;3.81;100.00;100842.28;7390018;19;20403;-52
2023/11/19 01:12:05;;;;;;;5.30;3.47;;;;;;;3.79;100.00;100833.59;7366852;19;20423;-54
2023/11/19 01:14:37;;;;;;;8.60;4.30;;;;;;;3.79;100.00;100833.59;7390986;19;20424;-53
2023/11/19 01:17:08;;;;;;;6.40;3.80;;;;;;;3.80;100.00;100820.09;7368343;19;20438;-51
2023/11/19 01:19:38;;;;;;;6.60;3.50;;;;;;;3.83;100.00;100820.28;7389616;19;20431;-51
2023/11/19 01:22:08;;;;;;;7.53;3.73;;;;;;;3.81;100.00;100806.56;7366919;19;20419;-54
2023/11/19 01:24:37;;;;;;;5.97;3.50;;;;;;;3.83;100.00;100804.97;7390400;19;20418;-53
2023/11/19 01:27:08;;;;;;;8.67;4.03;;;;;;;3.86;100.00;100815.41;7366984;19;20506;-52
2023/11/19 01:29:42;;;;;;;7.30;4.17;;;;;;;3.86;100.00;100789.88;7391669;19;20399;-56
2023/11/19 01:32:12;;;;;;;6.40;3.57;;;;;;;3.86;100.00;100781.34;7367275;19;20799;-53
2023/11/19 01:34:42;;;;;;;4.10;2.60;;;;;;;3.77;100.00;100779.03;7391540;19;20980;-49
2023/11/19 01:37:14;;;;;;;5.10;2.90;;;;;;;3.82;100.00;100782.78;7367725;19;20423;-51
2023/11/19 01:39:46;;;;;;;7.83;2.60;;;;;;;3.87;100.00;100775.44;7389215;19;20404;-50
2023/11/19 01:42:27;;;;;;;5.10;2.60;;;;;;;3.80;100.00;100774.16;7366828;19;20426;-51
2023/11/19 01:45:06;;;;;;;8.40;3.87;;;;;;;3.89;100.00;100763.66;7391302;19;20423;-55
2023/11/19 01:47:36;;;;;;;3.70;1.97;;;;;;;3.92;100.00;100752.03;7368940;19;20840;-50
2023/11/19 01:50:09;;;;;;;3.90;2.10;;;;;;;3.89;100.00;100754.34;7388647;19;20842;-53
2023/11/19 01:52:39;;;;;;;9.80;4.37;;;;;;;3.86;100.00;100750.69;7367481;19;20443;-54
2023/11/19 01:55:11;;;;;;;4.63;2.73;;;;;;;3.90;100.00;100745.91;7390018;19;20497;-41
2023/11/19 01:57:41;;;;;;;5.97;3.03;;;;;;;3.97;100.00;100751.44;7364785;19;20439;-41
2023/11/19 02:00:15;;;;;;;4.60;2.80;;;;;;;3.89;100.00;100744.13;7384254;19;20421;-39
2023/11/19 02:02:46;;;;;;;9.20;3.50;;;;;;;3.85;100.00;100742.13;7387734;19;20406;-42
2023/11/19 02:05:16;;;;;;;4.47;2.97;;;;;;;3.90;100.00;100745.91;7366479;19;20454;-40
2023/11/19 02:07:46;;;;;;;5.80;3.07;;;;;;;3.89;100.00;100733.94;7387761;19;20415;-40
2023/11/19 02:10:16;;;;;;;3.30;2.10;;;;;;;3.89;100.00;100722.81;7365165;19;20420;-41
2023/11/19 02:12:46;;;;;;;5.50;2.20;;;;;;;3.90;100.00;100711.84;7387156;19;20431;-42
2023/11/19 02:15:19;;;;;;;3.60;1.90;;;;;;;3.94;100.00;100710.38;7364138;19;20958;-41
2023/11/19 02:17:49;;;;;;;5.20;2.00;;;;;;;3.86;100.00;100700.53;7387294;19;20424;-41
2023/11/19 02:20:20;;;;;;;4.60;2.20;;;;;;;3.92;100.00;100703.50;7365294;19;21006;-40
2023/11/19 02:22:50;;;;;;;3.93;1.93;;;;;;;3.97;100.00;100692.72;7386666;19;20958;-42
2023/11/19 02:25:25;;;;;;;6.27;2.90;;;;;;;3.89;100.00;100682.88;7365351;19;20456;-40
2023/11/19 02:28:00;;;;;;;4.63;2.20;;;;;;;3.98;100.00;100681.72;7387326;19;20403;-41
2023/11/19 02:30:29;;;;;;;4.30;2.00;;;;;;;3.90;100.00;100684.63;7365184;19;20422;-41
2023/11/19 02:33:03;;;;;;;4.37;1.63;;;;;;;3.88;100.00;100690.41;7388479;19;20410;-41
2023/11/19 02:35:33;;;;;;;10.60;4.43;;;;;;;3.92;100.00;100685.66;7364509;19;20558;-41
2023/11/19 02:38:03;;;;;;;4.27;2.00;;;;;;;3.98;100.00;100657.06;7386028;19;21013;-41
2023/11/19 02:40:33;;;;;;;3.87;1.97;;;;;;;3.99;100.00;100648.63;7363813;19;20441;-40
2023/11/19 02:43:06;;;;;;;2.97;1.40;;;;;;;4.06;100.00;100649.94;7386304;19;20414;-43
2023/11/19 02:45:35;;;;;;;2.70;1.40;;;;;;;3.95;100.00;100656.00;7365225;19;20427;-42
2023/11/19 02:48:06;;;;;;;2.40;1.30;;;;;;;3.86;100.00;100646.03;7386668;19;20403;-40
2023/11/19 02:50:35;;;;;;;4.20;2.50;;;;;;;3.95;100.00;100645.78;7364585;19;20415;-40
2023/11/19 02:53:06;;;;;;;6.30;2.97;;;;;;;3.98;100.00;100635.75;7386228;19;20403;-41
2023/11/19 02:55:38;;;;;;;3.87;2.20;;;;;;;4.02;100.00;100622.41;7365450;19;20415;-40
2023/11/19 02:58:19;;;;;;;3.57;1.63;;;;;;;4.08;100.00;100619.38;7376190;19;20403;-41
2023/11/19 03:00:56;;;;;;;3.50;2.07;;;;;;;3.99;100.00;100617.13;7364101;19;20820;-42
2023/11/19 03:03:28;;;;;;;2.53;1.60;;;;;;;3.99;100.00;100606.91;7385811;19;22230;-40
2023/11/19 03:05:58;;;;;;;3.83;2.60;;;;;;;3.97;100.00;100609.34;7361463;19;20423;-43
2023/11/19 03:08:28;;;;;;;5.17;2.83;;;;;;;4.00;100.00;100601.88;7383543;19;20954;-40
2023/11/19 03:10:57;;;;;;;5.33;2.37;;;;;;;4.01;100.00;100597.69;7362831;19;20407;-40
2023/11/19 03:13:30;;;;;;;4.97;2.27;;;;;;;4.01;100.00;100590.00;7384286;19;20978;-42
2023/11/19 03:15:59;;;;;;;8.63;4.00;;;;;;;4.05;100.00;100585.19;7362172;19;20450;-43
2023/11/19 03:18:29;;;;;;;9.57;3.90;;;;;;;4.04;100.00;100591.09;7386953;19;20403;-40
2023/11/19 03:20:59;;;;;;;4.07;2.43;;;;;;;4.07;100.00;100577.66;7363134;19;20461;-43
2023/11/19 03:23:29;;;;;;;4.60;2.20;;;;;;;4.09;100.00;100568.41;7384840;19;20413;-41
2023/11/19 03:26:03;;;;;;;5.00;2.53;;;;;;;4.11;100.00;100566.81;7362559;19;21011;-41
2023/11/19 03:28:35;;;;;;;4.70;3.00;;;;;;;4.18;100.00;100558.81;7387087;19;20487;-43
2023/11/19 03:31:08;;;;;;;3.80;2.90;;;;;;;4.20;100.00;100543.56;7363185;19;20495;-40
2023/11/19 03:33:38;;;;;;;9.20;4.27;;;;;;;4.18;100.00;100542.59;7385411;19;20399;-42
2023/11/19 03:36:09;;;;;;;6.50;3.40;;;;;;;4.21;100.00;100549.56;7362761;19;20812;-44
2023/11/19 03:38:38;;;;;;;5.07;3.53;;;;;;;4.22;100.00;100544.56;7383805;19;20407;-41
2023/11/19 03:41:13;;;;;;;7.17;4.67;;;;;;;4.28;100.00;100544.06;7359780;19;20422;-42
2023/11/19 03:43:45;;;;;;;10.53;5.50;;;;;;;4.35;100.00;100533.44;7384370;19;20954;-40
2023/11/19 03:46:21;;;;;;;24.30;10.33;;;;;;;4.36;100.00;100535.19;7362462;19;20981;-42
2023/11/19 03:48:51;;;;;;;7.47;4.00;;;;;;;4.42;100.00;100537.28;7382796;19;21055;-42
2023/11/19 03:51:21;;;;;;;6.17;3.50;;;;;;;4.43;100.00;100528.81;7362765;19;20518;-42
2023/11/19 03:53:50;;;;;;;6.70;4.17;;;;;;;4.43;100.00;100536.47;7384296;19;20425;-41
2023/11/19 03:56:21;;;;;;;6.47;4.03;;;;;;;4.49;100.00;100538.53;7361753;19;20427;-41
2023/11/19 03:58:53;;;;;;;16.83;6.70;;;;;;;4.56;100.00;100530.47;7383338;19;20407;-42
2023/11/19 04:01:22;;;;;;;7.03;4.23;;;;;;;4.58;100.00;100531.44;7362477;19;20423;-41
2023/11/19 04:03:52;;;;;;;7.40;4.53;;;;;;;4.57;100.00;100522.88;7385911;19;20764;-40
2023/11/19 04:06:22;;;;;;;10.30;4.93;;;;;;;4.60;100.00;100517.09;7360261;19;20427;-41
2023/11/19 04:08:51;;;;;;;12.60;6.57;;;;;;;4.63;100.00;100522.41;7383007;19;20490;-42
2023/11/19 04:11:21;;;;;;;8.53;4.97;;;;;;;4.63;100.00;100509.63;7361416;19;20422;-42
2023/11/19 04:13:53;;;;;;;12.00;6.20;;;;;;;4.76;100.00;100492.50;7382780;19;20974;-42
2023/11/19 04:16:28;;;;;;;8.80;4.97;;;;;;;4.75;100.00;100501.81;7361517;19;20430;-42
2023/11/19 04:18:58;;;;;;;19.13;7.30;;;;;;;4.66;100.00;100501.28;7382706;19;20414;-41
2023/11/19 04:21:28;;;;;;;14.33;6.73;;;;;;;4.74;100.00;100487.28;7362218;19;20777;-41
2023/11/19 04:23:57;;;;;;;9.53;5.83;;;;;;;4.73;100.00;100488.06;7382954;19;20615;-41
2023/11/19 04:26:27;;;;;;;20.93;10.37;;;;;;;4.82;100.00;100474.97;7365847;19;20415;-41
2023/11/19 04:28:59;;;;;;;18.07;7.33;;;;;;;4.83;100.00;100469.06;7392049;19;20431;-41
2023/11/19 04:31:32;;;;;;;9.20;5.67;;;;;;;4.77;100.00;100494.25;7370316;19;20813;-43
2023/11/19 04:34:02;;;;;;;11.33;5.87;;;;;;;4.83;100.00;100479.28;7389164;19;20432;-41
2023/11/19 04:36:32;;;;;;;14.00;8.00;;;;;;;4.88;100.00;100470.22;7368104;19;20434;-41
2023/11/19 04:39:02;;;;;;;12.13;6.50;;;;;;;4.91;100.00;100467.84;7389267;19;20419;-41
2023/11/19 04:41:32;;;;;;;11.13;6.03;;;;;;;4.89;100.00;100461.75;7367981;19;20429;-42
2023/11/19 04:44:04;;;;;;;14.73;6.57;;;;;;;4.87;100.00;100463.31;7393739;19;21166;-41
2023/11/19 04:46:34;;;;;;;11.43;6.43;;;;;;;4.91;100.00;100460.16;7374245;19;20518;-41
2023/11/19 04:49:04;;;;;;;14.30;7.80;;;;;;;4.93;100.00;100461.13;7396869;19;20467;-40
2023/11/19 04:51:34;;;;;;;14.53;7.33;;;;;;;4.93;100.00;100460.28;7373740;19;20813;-40
2023/11/19 04:54:03;;;;;;;15.63;7.73;;;;;;;4.94;100.00;100455.25;7397503;19;20978;-41
2023/11/19 04:56:33;;;;;;;16.13;7.50;;;;;;;4.97;100.00;100468.22;7373816;19;20430;-41
2023/11/19 04:59:05;;;;;;;14.90;7.33;;;;;;;5.11;100.00;100455.34;7396754;19;20837;-42
2023/11/19 05:01:35;;;;;;;15.80;7.57;;;;;;;5.11;100.00;100458.81;7373451;19;20498;-41
2023/11/19 05:04:06;;;;;;;22.87;9.70;;;;;;;5.11;100.00;100455.34;7397367;19;20411;-40
2023/11/19 05:06:36;;;;;;;19.33;9.60;;;;;;;5.12;100.00;100446.88;7372957;19;20423;-40
2023/11/19 05:09:07;;;;;;;19.70;10.00;;;;;;;5.09;100.00;100442.47;7396404;19;21258;-41
2023/11/19 05:11:38;;;;;;;53.83;20.17;;;;;;;5.15;100.00;100434.28;7373037;19;20947;-41
2023/11/19 05:14:24;;;;;;;25.23;11.10;;;;;;;5.18;100.00;100434.44;7397245;19;20407;-43
2023/11/19 05:16:53;;;;;;;36.70;11.00;;;;;;;5.22;100.00;100415.06;7373659;19;20419;-40
2023/11/19 05:19:23;;;;;;;21.20;9.87;;;;;;;5.25;100.00;100423.81;7397012;19;20414;-41
2023/11/19 05:21:53;;;;;;;22.50;10.27;;;;;;;5.28;100.00;100407.72;7373637;19;20423;-42
2023/11/19 05:24:23;;;;;;;20.20;10.37;;;;;;;5.34;100.00;100402.09;7400033;19;20826;-44
2023/11/19 05:26:52;;;;;;;20.70;10.00;;;;;;;5.34;100.00;100397.84;7373486;19;20510;-42
2023/11/19 05:29:25;;;;;;;24.40;11.27;;;;;;;5.40;100.00;100387.09;7397147;19;20475;-42
2023/11/19 05:31:55;;;;;;;25.10;11.80;;;;;;;5.43;100.00;100384.69;7373439;19;20427;-41
2023/11/19 05:34:24;;;;;;;22.93;10.00;;;;;;;5.49;100.00;100390.16;7395858;19;20399;-43
2023/11/19 05:36:54;;;;;;;21.33;10.80;;;;;;;5.56;100.00;100387.94;7371150;19;20419;-42
2023/11/19 05:39:24;;;;;;;26.90;12.07;;;;;;;5.62;100.00;100393.41;7393857;19;20924;-41
2023/11/19 05:41:54;;;;;;;27.93;11.57;;;;;;;5.68;100.00;100380.97;7372533;19;20415;-41
2023/11/19 05:44:26;;;;;;;25.43;12.00;;;;;;;5.75;100.00;100366.84;7397197;19;20403;-41
2023/11/19 05:46:55;;;;;;;21.87;10.40;;;;;;;5.86;100.00;100367.41;7373792;19;20498;-42
2023/11/19 05:49:25;;;;;;;32.40;12.17;;;;;;;5.99;100.00;100358.72;7394575;19;20775;-43
2023/11/19 05:51:55;;;;;;;30.70;13.50;;;;;;;6.07;100.00;100334.44;7373419;19;21018;-41
2023/11/19 05:54:26;;;;;;;25.53;11.67;;;;;;;6.20;100.00;100308.66;7394468;19;20408;-42
2023/11/19 05:56:57;;;;;;;31.50;13.80;;;;;;;6.29;100.00;100300.56;7372146;19;20535;-41
2023/11/19 05:59:29;;;;;;;24.90;13.40;;;;;;;6.41;100.00;100284.94;7395595;19;20407;-41
2023/11/19 06:02:00;;;;;;;31.90;13.80;;;;;;;6.55;100.00;100279.63;7372900;19;20431;-41
2023/11/19 06:04:29;;;;;;;28.57;12.30;;;;;;;6.69;100.00;100257.25;7395320;19;20414;-42
2023/11/19 06:06:59;;;;;;;32.77;13.10;;;;;;;6.83;100.00;100245.97;7369797;19;20427;-41
2023/11/19 06:09:29;;;;;;;31.80;14.37;;;;;;;6.97;100.00;100227.84;7398053;19;20410;-41
2023/11/19 06:12:01;;;;;;;35.80;14.63;;;;;;;7.12;100.00;100205.47;7372411;19;20447;-43
2023/11/19 06:14:33;;;;;;;23.70;11.73;;;;;;;7.36;100.00;100140.69;7397237;19;20435;-43
2023/11/19 06:17:04;;;;;;;30.03;11.47;;;;;;;7.40;100.00;100109.19;7372311;19;21178;-40
2023/11/19 06:19:34;;;;;;;37.33;15.20;;;;;;;7.48;100.00;99986.34;7394943;19;20436;-43
2023/11/19 06:22:04;;;;;;;32.90;13.03;;;;;;;7.73;100.00;100001.91;7372118;19;20426;-41
2023/11/19 06:24:33;;;;;;;32.30;12.53;;;;;;;7.89;100.00;99986.28;7394826;19;20830;-42
2023/11/19 06:27:04;;;;;;;29.93;11.67;;;;;;;7.97;100.00;99978.88;7370012;19;20526;-42
2023/11/19 06:29:36;;;;;;;27.90;10.33;;;;;;;8.08;100.00;99974.16;7394617;19;20474;-41
2023/11/19 06:32:07;;;;;;;30.40;11.43;;;;;;;8.16;100.00;99967.63;7372350;19;20783;-42
2023/11/19 06:34:40;;;;;;;32.90;13.43;;;;;;;8.23;100.00;99963.63;7395135;19;20721;-42
2023/11/19 06:37:10;;;;;;;32.60;12.37;;;;;;;8.29;100.00;99957.81;7371818;19;20421;-41
2023/11/19 06:39:40;;;;;;;24.97;11.53;;;;;;;8.38;100.00;99953.91;7393923;19;21038;-41
2023/11/19 06:42:10;;;;;;;25.67;11.37;;;;;;;8.44;100.00;99940.44;7371955;19;20428;-41
2023/11/19 06:44:42;;;;;;;31.97;12.00;;;;;;;8.47;100.00;99945.66;7394503;19;20479;-42
2023/11/19 06:47:11;;;;;;;30.03;10.87;;;;;;;8.54;100.00;99946.81;7370125;19;20526;-42
2023/11/19 06:49:41;;;;;;;32.23;10.93;;;;;;;8.60;100.00;99944.47;7392724;19;20742;-45
2023/11/19 06:52:11;;;;;;;40.70;11.17;;;;;;;8.68;100.00;99942.19;7371080;19;20425;-41
2023/11/19 06:54:41;;;;;;;33.73;11.97;;;;;;;8.81;100.00;99945.22;7394603;19;20399;-41
2023/11/19 06:57:11;;;;;;;27.77;9.90;;;;;;;8.83;100.00;99936.72;7370851;19;20506;-41
2023/11/19 06:59:45;;;;;;;39.53;10.47;;;;;;;8.86;100.00;99941.06;7393852;19;20407;-43
2023/11/19 07:02:14;;;;;;;25.97;8.27;;;;;;;9.00;100.00;99942.47;7370266;19;20419;-44
2023/11/19 07:04:44;;;;;;;20.50;7.73;;;;;;;9.02;100.00;99956.25;7394365;19;20802;-41
2023/11/19 07:07:15;;;;;;;22.00;5.80;;;;;;;9.17;100.00;99952.44;7368135;19;20431;-40
2023/11/19 07:09:44;;;;;;;25.33;6.40;;;;;;;9.24;100.00;99954.44;7393055;19;20403;-41
2023/11/19 07:12:14;;;;;;;25.63;6.57;;;;;;;9.23;100.00;99970.69;7370630;19;20455;-41
2023/11/19 07:14:46;;;;;;;33.67;4.40;;;;;;;9.34;100.00;99980.47;7395452;19;20781;-41
2023/11/19 07:17:17;;;;;;;35.47;6.17;;;;;;;9.38;100.00;100008.09;7370847;19;20815;-42
2023/11/19 07:19:47;;;;;;;23.03;7.13;;;;;;;9.41;100.00;100009.06;7393626;19;20411;-44
2023/11/19 07:22:17;;;;;;;23.43;6.57;;;;;;;9.38;100.00;100033.84;7370487;19;20975;-42
2023/11/19 07:24:47;;;;;;;24.20;6.10;;;;;;;9.53;100.00;100044.66;7393940;19;20407;-43
2023/11/19 07:27:14;;;;;;;26.23;4.23;;;;;;;9.56;100.00;100070.53;7368951;19;20475;-39
2023/11/19 07:29:46;;;;;;;14.33;4.17;;;;;;;9.55;100.00;100140.88;7392685;19;20414;-40
2023/11/19 07:32:16;;;;;;;32.93;4.97;;;;;;;9.55;100.00;100266.19;7369480;19;20491;-41
2023/11/19 07:34:45;;;;;;;12.47;3.60;;;;;;;9.53;100.00;100307.34;7394652;19;20772;-44
2023/11/19 07:37:16;;;;;;;23.90;5.70;;;;;;;9.57;100.00;100331.50;7371271;19;20419;-40
2023/11/19 07:39:46;;;;;;;27.57;4.90;;;;;;;9.60;100.00;100336.81;7392715;19;20399;-42
2023/11/19 07:42:16;;;;;;;16.70;4.50;;;;;;;9.57;100.00;100344.41;7369849;19;20429;-42
2023/11/19 07:44:48;;;;;;;32.43;5.17;;;;;;;9.63;100.00;100333.47;7394467;19;20418;-41
2023/11/19 07:47:18;;;;;;;23.67;5.70;;;;;;;9.64;100.00;100335.22;7368763;19;20503;-42
2023/11/19 07:49:47;;;;;;;14.17;2.83;;;;;;;9.65;100.00;100326.66;7392901;19;20407;-41
2023/11/19 07:52:17;;;;;;;33.67;4.97;;;;;;;9.70;100.00;100325.16;7369495;19;20426;-41
2023/11/19 07:54:49;;;;;;;32.50;5.50;;;;;;;9.72;100.00;100308.06;7392894;19;20382;-43
2023/11/19 07:57:19;;;;;;;25.13;4.50;;;;;;;9.75;100.00;100297.88;7368974;19;20782;-41
2023/11/19 07:59:52;;;;;;;25.20;4.13;;;;;;;9.76;100.00;100281.59;7387868;19;20395;-40
2023/11/19 08:02:21;;;;;;;23.47;4.30;;;;;;;9.75;100.00;100274.69;7376730;19;20423;-41
2023/11/19 08:04:51;;;;;;;23.80;4.70;;;;;;;9.77;100.00;100260.16;7399235;19;20399;-42
2023/11/19 08:07:21;;;;;;;27.70;4.57;;;;;;;9.79;100.00;100245.63;7373060;19;20775;-40
2023/11/19 08:09:51;;;;;;;19.27;4.10;;;;;;;9.81;100.00;100220.81;7393129;19;20403;-41
2023/11/19 08:12:21;;;;;;;40.67;5.73;;;;;;;9.83;100.00;100190.81;7369235;19;20443;-42
2023/11/19 08:14:53;;;;;;;27.67;4.70;;;;;;;9.85;100.00;100155.66;7391335;19;20410;-40
2023/11/19 08:17:23;;;;;;;42.37;9.33;;;;;;;9.89;100.00;100161.78;7369601;19;20490;-43
2023/11/19 08:19:53;;;;;;;72.43;22.13;;;;;;;9.95;100.00;100120.78;7389624;19;20395;-40
2023/11/19 08:22:22;;;;;;;31.80;5.27;;;;;;;9.95;100.00;100097.59;7369368;19;20954;-42
2023/11/19 08:24:52;;;;;;;45.87;13.90;;;;;;;10.04;100.00;100058.38;7389281;19;20415;-41
2023/11/19 08:27:26;;;;;;;20.33;4.70;;;;;;;9.99;100.00;100024.72;7368728;19;20433;-42
2023/11/19 08:29:59;;;;;;;37.27;10.90;;;;;;;10.02;100.00;99987.88;7391053;19;20414;-40
2023/11/19 08:32:29;;;;;;;25.93;4.90;;;;;;;10.02;100.00;99961.19;7369394;19;22486;-40
2023/11/19 08:34:59;;;;;;;34.03;8.03;;;;;;;10.01;100.00;99960.34;7391143;19;20942;-41
2023/11/19 08:37:29;;;;;;;28.07;7.00;;;;;;;10.00;100.00;99937.94;7369012;19;21157;-40
2023/11/19 08:39:59;;;;;;;33.17;9.57;;;;;;;10.04;100.00;99926.91;7394399;19;20421;-43
2023/11/19 08:42:29;;;;;;;36.40;9.17;;;;;;;10.06;100.00;99911.50;7369723;19;20447;-41
2023/11/19 08:45:01;;;;;;;24.27;5.10;;;;;;;10.01;100.00;99906.22;7391106;19;20415;-42
2023/11/19 08:47:31;;;;;;;44.30;10.53;;;;;;;10.07;100.00;99903.84;7366969;19;20519;-41
2023/11/19 08:50:01;;;;;;;20.03;4.40;;;;;;;10.03;100.00;99895.94;7388530;19;20404;-40
2023/11/19 08:52:33;;;;;;;35.30;10.43;;;;;;;10.10;100.00;99877.28;7368571;19;20427;-40
2023/11/19 08:55:05;;;;;;;37.33;4.67;;;;;;;10.10;100.00;99865.25;7392059;19;20414;-40
2023/11/19 08:57:35;;;;;;;23.30;4.17;;;;;;;10.10;100.00;99872.97;7367835;19;20435;-40
2023/11/19 09:00:11;;;;;;;32.10;7.03;;;;;;;10.16;100.00;99872.31;7389410;19;20494;-44
2023/11/19 09:02:42;;;;;;;27.93;6.50;;;;;;;10.16;100.00;99855.97;7369469;19;20505;-42
2023/11/19 09:05:12;;;;;;;44.83;9.77;;;;;;;10.23;100.00;99844.97;7367582;19;21641;-42
2023/11/19 09:07:42;;;;;;;40.07;9.07;;;;;;;10.19;100.00;99835.41;7388565;19;20408;-42
2023/11/19 09:10:12;;;;;;;30.10;6.10;;;;;;;10.18;100.00;99843.97;7375181;19;20406;-40
2023/11/19 09:12:42;;;;;;;24.00;4.37;;;;;;;10.23;100.00;99837.25;7390123;19;20773;-40
2023/11/19 09:15:14;;;;;;;16.40;3.60;;;;;;;10.20;100.00;99839.75;7374527;19;20423;-40
2023/11/19 09:17:45;;;;;;;27.97;4.33;;;;;;;10.21;100.00;99838.91;7389113;19;20411;-42
2023/11/19 09:20:15;;;;;;;26.20;4.50;;;;;;;10.25;100.00;99848.47;7366091;19;22116;-40
2023/11/19 09:22:45;;;;;;;23.77;3.17;;;;;;;10.27;100.00;99841.69;7387482;19;20789;-41
2023/11/19 09:25:16;;;;;;;34.10;5.40;;;;;;;10.30;100.00;99844.31;7364996;19;20768;-41
2023/11/19 09:27:46;;;;;;;34.97;7.20;;;;;;;10.29;100.00;99846.88;7389040;19;20407;-40
2023/11/19 09:30:19;;;;;;;31.10;4.63;;;;;;;10.27;100.00;99850.25;7365056;19;20416;-41
2023/11/19 09:32:49;;;;;;;36.80;7.33;;;;;;;10.20;100.00;99850.94;7386667;19;20408;-40
2023/11/19 09:35:18;;;;;;;23.17;4.70;;;;;;;10.24;100.00;99839.88;7367089;19;20419;-39
2023/11/19 09:37:48;;;;;;;22.83;6.17;;;;;;;10.23;100.00;99850.13;7389130;19;20408;-40
2023/11/19 09:40:18;;;;;;;35.17;6.90;;;;;;;10.26;100.00;99851.09;7364682;19;20408;-40
2023/11/19 09:42:48;;;;;;;38.17;5.77;;;;;;;10.19;100.00;99848.28;7386731;19;20487;-42
2023/11/19 09:45:23;;;;;;;32.33;4.63;;;;;;;10.07;100.00;99861.72;7366811;19;20433;-40
2023/11/19 09:47:54;;;;;;;14.83;3.00;;;;;;;10.05;100.00;99864.25;7387602;19;20408;-41
2023/11/19 09:50:24;;;;;;;33.13;7.70;;;;;;;10.07;100.00;99872.91;7368497;19;20399;-40
2023/11/19 09:52:53;;;;;;;25.57;5.20;;;;;;;10.10;100.00;99877.28;7387820;19;20757;-40
2023/11/19 09:55:23;;;;;;;16.90;3.90;;;;;;;10.10;100.00;99870.41;7366001;19;20431;-41
2023/11/19 09:57:55;;;;;;;29.50;5.50;;;;;;;10.19;100.00;99862.06;7386348;19;20628;-41
2023/11/19 10:00:27;;;;;;;6.13;1.83;;;;;;;10.30;100.00;99848.63;7358898;19;20498;-42
2023/11/19 10:02:57;;;;;;;29.23;6.63;;;;;;;10.37;100.00;99846.25;7386840;19;20404;-41
2023/11/19 10:05:27;;;;;;;17.17;3.33;;;;;;;10.34;100.00;99840.13;7365033;19;20443;-43
2023/11/19 10:07:58;;;;;;;28.90;4.83;;;;;;;10.36;100.00;99834.19;7386125;19;20431;-42
2023/11/19 10:10:27;;;;;;;11.30;2.10;;;;;;;10.36;100.00;99829.03;7368918;19;20458;-40
2023/11/19 10:12:57;;;;;;;25.07;3.93;;;;;;;10.38;100.00;99829.97;7391346;19;20483;-44
2023/11/19 10:15:30;;;;;;;19.73;2.80;;;;;;;10.35;100.00;99826.41;7372421;19;20451;-41
2023/11/19 10:18:00;;;;;;;20.33;2.90;;;;;;;10.39;100.00;99836.88;7394556;19;20403;-39
2023/11/19 10:20:29;;;;;;;27.77;4.33;;;;;;;10.49;100.00;99835.44;7359888;19;20407;-41
2023/11/19 10:22:59;;;;;;;29.53;3.00;;;;;;;10.53;100.00;99831.25;7387681;19;20411;-41
2023/11/19 10:25:30;;;;;;;31.33;4.00;;;;;;;10.56;100.00;99833.88;7364919;19;20511;-41
2023/11/19 10:28:00;;;;;;;18.60;3.80;;;;;;;10.56;100.00;99839.03;7386519;19;20478;-41
2023/11/19 10:30:33;;;;;;;22.30;3.50;;;;;;;10.60;100.00;99840.00;7367018;19;20856;-40
2023/11/19 10:33:08;;;;;;;39.13;3.87;;;;;;;10.60;100.00;99845.16;7386898;19;20499;-41
2023/11/19 10:35:39;;;;;;;30.77;4.90;;;;;;;10.59;100.00;99852.03;7364920;19;20423;-41
2023/11/19 10:38:17;;;;;;;22.03;3.90;;;;;;;10.62;100.00;99852.09;7386810;19;20785;-42
2023/11/19 10:40:46;;;;;;;16.20;3.30;;;;;;;10.46;100.00;99865.44;7365755;19;20450;-40
2023/11/19 10:43:16;;;;;;;38.37;4.70;;;;;;;10.50;100.00;99865.56;7385787;19;20407;-41
2023/11/19 10:45:49;;;;;;;15.33;3.00;;;;;;;10.37;100.00;99856.56;7365598;19;20427;-41
2023/11/19 10:48:19;;;;;;;16.27;3.43;;;;;;;10.39;100.00;99867.81;7386733;19;20407;-40
2023/11/19 10:50:52;;;;;;;24.33;4.30;;;;;;;10.42;100.00;99868.72;7365399;19;20419;-40
2023/11/19 10:53:23;;;;;;;23.00;4.90;;;;;;;10.42;100.00;99868.72;7385751;19;20411;-40
2023/11/19 10:55:53;;;;;;;23.70;5.20;;;;;;;10.36;100.00;99867.69;7365469;19;20629;-41
2023/11/19 10:58:22;;;;;;;8.80;2.30;;;;;;;10.30;100.00;99872.69;7386294;19;20443;-39
2023/11/19 11:00:58;;;;;;;24.37;3.90;;;;;;;10.29;100.00;99875.25;7362580;19;20415;-40
2023/11/19 11:03:28;;;;;;;20.80;3.87;;;;;;;10.33;100.00;99867.63;7386528;19;20407;-40
2023/11/19 11:05:59;;;;;;;29.80;4.80;;;;;;;10.36;100.00;99862.53;7362366;19;20423;-40
2023/11/19 11:08:29;;;;;;;28.10;3.70;;;;;;;10.31;100.00;99869.28;7386124;19;20403;-41
2023/11/19 11:11:00;;;;;;;14.57;2.63;;;;;;;10.20;100.00;99870.69;7364064;19;20435;-41
2023/11/19 11:13:30;;;;;;;20.83;2.90;;;;;;;10.17;100.00;99873.16;7386017;19;22238;-40
2023/11/19 11:16:04;;;;;;;27.30;4.80;;;;;;;10.08;100.00;99878.91;7363339;19;20514;-40
2023/11/19 11:18:34;;;;;;;32.33;4.67;;;;;;;10.04;100.00;99882.25;7385119;19;20408;-40
2023/11/19 11:21:07;;;;;;;17.30;4.17;;;;;;;10.06;100.00;99878.88;7363686;19;20446;-41
2023/11/19 11:23:54;;;;;;;33.47;6.43;;;;;;;10.04;100.00;99882.25;7386424;19;20482;-41
2023/11/19 11:26:35;;;;;;;30.23;4.30;;;;;;;10.04;100.00;99880.53;7363115;19;20423;-41
2023/11/19 11:29:08;;;;;;;14.47;3.23;;;;;;;10.09;100.00;99875.50;7385695;19;20487;-41
2023/11/19 11:31:48;;;;;;;20.53;3.77;;;;;;;10.22;100.00;99879.34;7364000;19;20419;-41
2023/11/19 11:34:49;;;;;;;34.27;5.30;;;;;;;10.38;100.00;99870.34;7384598;19;20482;-43
2023/11/19 11:37:23;;;;;;;37.47;4.23;;;;;;;10.44;100.00;99862.81;7363033;19;20471;-40